sensor_id;sensor_type;location;lat;lon;timestamp;P1;durP1;ratioP1;P2;durP2;ratioP2
3993;SDS011;2011;48.238;13.948;2023-09-19T00:00:20;6.80;;;2.30;;
3993;SDS011;2011;48.238;13.948;2023-09-19T00:02:53;4.20;;;1.67;;
3993;SDS011;2011;48.238;13.948;2023-09-19T00:05:22;9.07;;;2.30;;
3993;SDS011;2011;48.238;13.948;2023-09-19T00:07:52;5.10;;;2.63;;
3993;SDS011;2011;48.238;13.948;2023-09-19T00:10:21;14.13;;;2.40;;
3993;SDS011;2011;48.238;13.948;2023-09-19T00:12:49;10.03;;;2.40;;
3993;SDS011;2011;48.238;13.948;2023-09-19T00:15:17;5.47;;;2.30;;
3993;SDS011;2011;48.238;13.948;2023-09-19T00:17:46;6.00;;;2.67;;
3993;SDS011;2011;48.238;13.948;2023-09-19T00:20:13;10.73;;;2.20;;
3993;SDS011;2011;48.238;13.948;2023-09-19T00:22:42;11.30;;;2.30;;
3993;SDS011;2011;48.238;13.948;2023-09-19T00:25:10;6.60;;;2.00;;
3993;SDS011;2011;48.238;13.948;2023-09-19T00:27:37;6.90;;;2.60;;
3993;SDS011;2011;48.238;13.948;2023-09-19T00:30:07;5.40;;;2.10;;
3993;SDS011;2011;48.238;13.948;2023-09-19T00:32:40;9.40;;;2.43;;
3993;SDS011;2011;48.238;13.948;2023-09-19T00:35:08;5.70;;;2.10;;
3993;SDS011;2011;48.238;13.948;2023-09-19T00:37:36;5.43;;;2.43;;
3993;SDS011;2011;48.238;13.948;2023-09-19T00:40:05;7.93;;;2.43;;
3993;SDS011;2011;48.238;13.948;2023-09-19T00:42:37;6.10;;;2.87;;
3993;SDS011;2011;48.238;13.948;2023-09-19T00:45:06;7.23;;;2.00;;
3993;SDS011;2011;48.238;13.948;2023-09-19T00:47:34;9.70;;;2.20;;
3993;SDS011;2011;48.238;13.948;2023-09-19T00:50:04;8.07;;;2.30;;
3993;SDS011;2011;48.238;13.948;2023-09-19T00:52:33;8.73;;;2.20;;
3993;SDS011;2011;48.238;13.948;2023-09-19T00:55:02;5.53;;;2.27;;
3993;SDS011;2011;48.238;13.948;2023-09-19T00:57:29;6.97;;;2.33;;
3993;SDS011;2011;48.238;13.948;2023-09-19T00:59:58;16.83;;;2.40;;
3993;SDS011;2011;48.238;13.948;2023-09-19T01:02:30;15.90;;;2.90;;
3993;SDS011;2011;48.238;13.948;2023-09-19T01:04:58;19.43;;;2.37;;
3993;SDS011;2011;48.238;13.948;2023-09-19T01:07:27;5.20;;;1.90;;
3993;SDS011;2011;48.238;13.948;2023-09-19T01:09:55;6.23;;;1.87;;
3993;SDS011;2011;48.238;13.948;2023-09-19T01:12:26;7.37;;;2.10;;
3993;SDS011;2011;48.238;13.948;2023-09-19T01:15:01;9.67;;;2.60;;
3993;SDS011;2011;48.238;13.948;2023-09-19T01:17:35;6.73;;;2.10;;
3993;SDS011;2011;48.238;13.948;2023-09-19T01:20:15;6.53;;;1.93;;
3993;SDS011;2011;48.238;13.948;2023-09-19T01:22:56;4.90;;;1.90;;
3993;SDS011;2011;48.238;13.948;2023-09-19T01:25:48;6.50;;;2.00;;
3993;SDS011;2011;48.238;13.948;2023-09-19T01:28:31;6.80;;;1.97;;
3993;SDS011;2011;48.238;13.948;2023-09-19T01:31:06;7.60;;;2.67;;
3993;SDS011;2011;48.238;13.948;2023-09-19T01:36:29;10.27;;;2.33;;
3993;SDS011;2011;48.238;13.948;2023-09-19T01:38:59;8.77;;;2.10;;
3993;SDS011;2011;48.238;13.948;2023-09-19T01:44:24;4.97;;;1.90;;
3993;SDS011;2011;48.238;13.948;2023-09-19T01:46:58;4.50;;;1.83;;
3993;SDS011;2011;48.238;13.948;2023-09-19T01:49:33;8.40;;;2.10;;
3993;SDS011;2011;48.238;13.948;2023-09-19T01:52:09;5.40;;;2.27;;
3993;SDS011;2011;48.238;13.948;2023-09-19T01:54:41;12.40;;;2.10;;
3993;SDS011;2011;48.238;13.948;2023-09-19T01:57:16;7.20;;;1.90;;
3993;SDS011;2011;48.238;13.948;2023-09-19T01:59:50;8.47;;;2.03;;
3993;SDS011;2011;48.238;13.948;2023-09-19T02:02:22;4.93;;;2.10;;
3993;SDS011;2011;48.238;13.948;2023-09-19T02:04:50;8.00;;;2.23;;
3993;SDS011;2011;48.238;13.948;2023-09-19T02:07:17;7.90;;;2.23;;
3993;SDS011;2011;48.238;13.948;2023-09-19T02:09:44;10.97;;;2.40;;
3993;SDS011;2011;48.238;13.948;2023-09-19T02:12:13;16.10;;;1.77;;
3993;SDS011;2011;48.238;13.948;2023-09-19T02:14:40;5.60;;;2.07;;
3993;SDS011;2011;48.238;13.948;2023-09-19T02:17:07;4.70;;;2.40;;
3993;SDS011;2011;48.238;13.948;2023-09-19T02:19:38;13.50;;;1.80;;
3993;SDS011;2011;48.238;13.948;2023-09-19T02:22:06;5.40;;;2.00;;
3993;SDS011;2011;48.238;13.948;2023-09-19T02:24:35;35.50;;;3.40;;
3993;SDS011;2011;48.238;13.948;2023-09-19T02:27:03;7.30;;;1.90;;
3993;SDS011;2011;48.238;13.948;2023-09-19T02:29:30;5.53;;;1.87;;
3993;SDS011;2011;48.238;13.948;2023-09-19T02:31:59;7.53;;;2.60;;
3993;SDS011;2011;48.238;13.948;2023-09-19T02:34:26;6.83;;;1.90;;
3993;SDS011;2011;48.238;13.948;2023-09-19T02:36:55;5.50;;;2.00;;
3993;SDS011;2011;48.238;13.948;2023-09-19T02:39:22;4.03;;;1.97;;
3993;SDS011;2011;48.238;13.948;2023-09-19T02:41:49;4.87;;;2.20;;
3993;SDS011;2011;48.238;13.948;2023-09-19T02:44:17;5.93;;;2.20;;
3993;SDS011;2011;48.238;13.948;2023-09-19T02:46:45;5.50;;;2.30;;
3993;SDS011;2011;48.238;13.948;2023-09-19T02:49:13;11.07;;;2.30;;
3993;SDS011;2011;48.238;13.948;2023-09-19T02:51:40;12.90;;;1.90;;
3993;SDS011;2011;48.238;13.948;2023-09-19T02:54:09;7.40;;;2.47;;
3993;SDS011;2011;48.238;13.948;2023-09-19T02:56:36;29.40;;;2.90;;
3993;SDS011;2011;48.238;13.948;2023-09-19T02:59:04;6.37;;;2.27;;
3993;SDS011;2011;48.238;13.948;2023-09-19T03:01:31;8.67;;;2.60;;
3993;SDS011;2011;48.238;13.948;2023-09-19T03:03:58;7.77;;;2.50;;
3993;SDS011;2011;48.238;13.948;2023-09-19T03:06:26;4.77;;;2.37;;
3993;SDS011;2011;48.238;13.948;2023-09-19T03:08:56;7.40;;;2.30;;
3993;SDS011;2011;48.238;13.948;2023-09-19T03:11:26;6.40;;;1.97;;
3993;SDS011;2011;48.238;13.948;2023-09-19T03:13:53;8.33;;;2.50;;
3993;SDS011;2011;48.238;13.948;2023-09-19T03:16:21;12.20;;;2.53;;
3993;SDS011;2011;48.238;13.948;2023-09-19T03:18:48;7.10;;;2.47;;
3993;SDS011;2011;48.238;13.948;2023-09-19T03:21:15;9.37;;;2.50;;
3993;SDS011;2011;48.238;13.948;2023-09-19T03:23:44;10.17;;;2.50;;
3993;SDS011;2011;48.238;13.948;2023-09-19T03:26:12;13.43;;;2.47;;
3993;SDS011;2011;48.238;13.948;2023-09-19T03:28:42;9.43;;;2.60;;
3993;SDS011;2011;48.238;13.948;2023-09-19T03:31:11;8.87;;;2.37;;
3993;SDS011;2011;48.238;13.948;2023-09-19T03:33:38;8.80;;;3.13;;
3993;SDS011;2011;48.238;13.948;2023-09-19T03:36:05;7.40;;;2.70;;
3993;SDS011;2011;48.238;13.948;2023-09-19T03:38:33;10.60;;;2.77;;
3993;SDS011;2011;48.238;13.948;2023-09-19T03:41:00;10.23;;;3.00;;
3993;SDS011;2011;48.238;13.948;2023-09-19T03:43:27;11.77;;;3.03;;
3993;SDS011;2011;48.238;13.948;2023-09-19T03:45:56;6.60;;;2.30;;
3993;SDS011;2011;48.238;13.948;2023-09-19T03:48:23;6.40;;;2.73;;
3993;SDS011;2011;48.238;13.948;2023-09-19T03:50:50;5.73;;;2.40;;
3993;SDS011;2011;48.238;13.948;2023-09-19T03:53:17;8.23;;;2.90;;
3993;SDS011;2011;48.238;13.948;2023-09-19T03:55:45;11.03;;;2.60;;
3993;SDS011;2011;48.238;13.948;2023-09-19T03:58:12;5.30;;;2.53;;
3993;SDS011;2011;48.238;13.948;2023-09-19T04:00:39;9.80;;;2.90;;
3993;SDS011;2011;48.238;13.948;2023-09-19T04:03:08;7.47;;;2.90;;
3993;SDS011;2011;48.238;13.948;2023-09-19T04:05:43;4.43;;;2.50;;
3993;SDS011;2011;48.238;13.948;2023-09-19T04:08:11;5.93;;;2.53;;
3993;SDS011;2011;48.238;13.948;2023-09-19T04:10:41;6.90;;;2.80;;
3993;SDS011;2011;48.238;13.948;2023-09-19T04:13:08;8.50;;;2.60;;
3993;SDS011;2011;48.238;13.948;2023-09-19T04:15:36;15.33;;;3.20;;
3993;SDS011;2011;48.238;13.948;2023-09-19T04:18:03;7.60;;;2.47;;
3993;SDS011;2011;48.238;13.948;2023-09-19T04:20:32;4.77;;;2.37;;
3993;SDS011;2011;48.238;13.948;2023-09-19T04:22:59;18.63;;;3.20;;
3993;SDS011;2011;48.238;13.948;2023-09-19T04:25:26;9.17;;;2.73;;
3993;SDS011;2011;48.238;13.948;2023-09-19T04:27:53;6.00;;;2.67;;
3993;SDS011;2011;48.238;13.948;2023-09-19T04:30:21;9.90;;;3.07;;
3993;SDS011;2011;48.238;13.948;2023-09-19T04:32:48;14.67;;;3.30;;
3993;SDS011;2011;48.238;13.948;2023-09-19T04:35:16;12.60;;;2.60;;
3993;SDS011;2011;48.238;13.948;2023-09-19T04:37:44;8.10;;;2.70;;
3993;SDS011;2011;48.238;13.948;2023-09-19T04:40:12;15.23;;;3.00;;
3993;SDS011;2011;48.238;13.948;2023-09-19T04:42:42;8.50;;;2.70;;
3993;SDS011;2011;48.238;13.948;2023-09-19T04:45:11;7.37;;;2.90;;
3993;SDS011;2011;48.238;13.948;2023-09-19T04:47:38;6.97;;;3.13;;
3993;SDS011;2011;48.238;13.948;2023-09-19T04:50:06;8.77;;;3.30;;
3993;SDS011;2011;48.238;13.948;2023-09-19T04:52:38;9.17;;;3.63;;
3993;SDS011;2011;48.238;13.948;2023-09-19T04:55:09;9.57;;;3.90;;
3993;SDS011;2011;48.238;13.948;2023-09-19T04:57:39;6.80;;;3.43;;
3993;SDS011;2011;48.238;13.948;2023-09-19T05:00:06;9.00;;;3.60;;
3993;SDS011;2011;48.238;13.948;2023-09-19T05:02:37;5.90;;;3.10;;
3993;SDS011;2011;48.238;13.948;2023-09-19T05:05:06;10.13;;;3.30;;
3993;SDS011;2011;48.238;13.948;2023-09-19T05:07:34;8.90;;;3.60;;
3993;SDS011;2011;48.238;13.948;2023-09-19T05:10:01;10.60;;;3.60;;
3993;SDS011;2011;48.238;13.948;2023-09-19T05:12:33;9.70;;;3.67;;
3993;SDS011;2011;48.238;13.948;2023-09-19T05:15:00;6.57;;;2.87;;
3993;SDS011;2011;48.238;13.948;2023-09-19T05:17:28;5.77;;;3.10;;
3993;SDS011;2011;48.238;13.948;2023-09-19T05:19:55;13.27;;;3.30;;
3993;SDS011;2011;48.238;13.948;2023-09-19T05:22:23;9.40;;;3.63;;
3993;SDS011;2011;48.238;13.948;2023-09-19T05:24:50;13.77;;;3.87;;
3993;SDS011;2011;48.238;13.948;2023-09-19T05:27:18;11.10;;;3.00;;
3993;SDS011;2011;48.238;13.948;2023-09-19T05:29:47;8.87;;;3.57;;
3993;SDS011;2011;48.238;13.948;2023-09-19T05:32:16;14.47;;;3.60;;
3993;SDS011;2011;48.238;13.948;2023-09-19T05:34:44;13.80;;;4.13;;
3993;SDS011;2011;48.238;13.948;2023-09-19T05:37:12;7.63;;;3.13;;
3993;SDS011;2011;48.238;13.948;2023-09-19T05:39:41;7.23;;;3.27;;
3993;SDS011;2011;48.238;13.948;2023-09-19T05:42:09;9.83;;;3.40;;
3993;SDS011;2011;48.238;13.948;2023-09-19T05:44:36;6.60;;;2.93;;
3993;SDS011;2011;48.238;13.948;2023-09-19T05:47:04;7.33;;;3.17;;
3993;SDS011;2011;48.238;13.948;2023-09-19T05:49:34;5.30;;;2.70;;
3993;SDS011;2011;48.238;13.948;2023-09-19T05:52:03;8.87;;;3.50;;
3993;SDS011;2011;48.238;13.948;2023-09-19T05:54:31;7.47;;;3.33;;
3993;SDS011;2011;48.238;13.948;2023-09-19T05:56:59;10.87;;;3.83;;
3993;SDS011;2011;48.238;13.948;2023-09-19T05:59:26;7.70;;;3.57;;
3993;SDS011;2011;48.238;13.948;2023-09-19T06:01:53;5.50;;;2.77;;
3993;SDS011;2011;48.238;13.948;2023-09-19T06:04:22;18.40;;;3.33;;
3993;SDS011;2011;48.238;13.948;2023-09-19T06:06:48;12.40;;;3.20;;
3993;SDS011;2011;48.238;13.948;2023-09-19T06:09:16;14.23;;;3.17;;
3993;SDS011;2011;48.238;13.948;2023-09-19T06:11:44;9.27;;;3.27;;
3993;SDS011;2011;48.238;13.948;2023-09-19T06:14:11;5.47;;;3.00;;
3993;SDS011;2011;48.238;13.948;2023-09-19T06:16:39;10.40;;;3.07;;
3993;SDS011;2011;48.238;13.948;2023-09-19T06:19:07;5.40;;;2.80;;
3993;SDS011;2011;48.238;13.948;2023-09-19T06:21:35;6.10;;;2.77;;
3993;SDS011;2011;48.238;13.948;2023-09-19T06:24:02;6.47;;;2.53;;
3993;SDS011;2011;48.238;13.948;2023-09-19T06:26:29;7.13;;;2.70;;
3993;SDS011;2011;48.238;13.948;2023-09-19T06:28:57;8.70;;;2.50;;
3993;SDS011;2011;48.238;13.948;2023-09-19T06:31:24;5.73;;;2.50;;
3993;SDS011;2011;48.238;13.948;2023-09-19T06:33:52;6.73;;;1.90;;
3993;SDS011;2011;48.238;13.948;2023-09-19T06:36:19;7.87;;;2.50;;
3993;SDS011;2011;48.238;13.948;2023-09-19T06:38:48;10.70;;;2.80;;
3993;SDS011;2011;48.238;13.948;2023-09-19T06:41:16;4.93;;;2.40;;
3993;SDS011;2011;48.238;13.948;2023-09-19T06:43:44;5.60;;;2.47;;
3993;SDS011;2011;48.238;13.948;2023-09-19T06:46:11;5.10;;;2.00;;
3993;SDS011;2011;48.238;13.948;2023-09-19T06:48:38;6.53;;;2.80;;
3993;SDS011;2011;48.238;13.948;2023-09-19T06:51:06;8.80;;;2.77;;
3993;SDS011;2011;48.238;13.948;2023-09-19T06:53:35;7.50;;;2.27;;
3993;SDS011;2011;48.238;13.948;2023-09-19T06:56:03;5.53;;;2.27;;
3993;SDS011;2011;48.238;13.948;2023-09-19T06:58:30;6.37;;;2.13;;
3993;SDS011;2011;48.238;13.948;2023-09-19T07:00:57;6.43;;;2.60;;
3993;SDS011;2011;48.238;13.948;2023-09-19T07:03:24;6.30;;;2.30;;
3993;SDS011;2011;48.238;13.948;2023-09-19T07:05:54;6.23;;;2.80;;
3993;SDS011;2011;48.238;13.948;2023-09-19T07:08:21;8.00;;;2.43;;
3993;SDS011;2011;48.238;13.948;2023-09-19T07:10:48;7.20;;;2.20;;
3993;SDS011;2011;48.238;13.948;2023-09-19T07:13:19;5.63;;;2.30;;
3993;SDS011;2011;48.238;13.948;2023-09-19T07:15:46;8.83;;;2.20;;
3993;SDS011;2011;48.238;13.948;2023-09-19T07:18:15;4.90;;;2.13;;
3993;SDS011;2011;48.238;13.948;2023-09-19T07:20:43;10.97;;;2.07;;
3993;SDS011;2011;48.238;13.948;2023-09-19T07:23:14;6.20;;;2.20;;
3993;SDS011;2011;48.238;13.948;2023-09-19T07:25:43;5.77;;;2.20;;
3993;SDS011;2011;48.238;13.948;2023-09-19T07:28:11;5.33;;;2.07;;
3993;SDS011;2011;48.238;13.948;2023-09-19T07:30:40;7.10;;;2.00;;
3993;SDS011;2011;48.238;13.948;2023-09-19T07:33:07;9.37;;;2.63;;
3993;SDS011;2011;48.238;13.948;2023-09-19T07:35:36;4.97;;;1.70;;
3993;SDS011;2011;48.238;13.948;2023-09-19T07:38:05;9.03;;;2.10;;
3993;SDS011;2011;48.238;13.948;2023-09-19T07:40:33;10.33;;;2.23;;
3993;SDS011;2011;48.238;13.948;2023-09-19T07:43:00;6.10;;;2.10;;
3993;SDS011;2011;48.238;13.948;2023-09-19T07:45:29;8.03;;;1.90;;
3993;SDS011;2011;48.238;13.948;2023-09-19T07:47:58;12.47;;;2.13;;
3993;SDS011;2011;48.238;13.948;2023-09-19T07:50:29;7.53;;;2.10;;
3993;SDS011;2011;48.238;13.948;2023-09-19T07:52:56;6.30;;;1.87;;
3993;SDS011;2011;48.238;13.948;2023-09-19T07:55:24;11.13;;;2.27;;
3993;SDS011;2011;48.238;13.948;2023-09-19T07:57:51;6.47;;;2.40;;
3993;SDS011;2011;48.238;13.948;2023-09-19T08:00:19;10.30;;;2.60;;
3993;SDS011;2011;48.238;13.948;2023-09-19T08:02:45;14.17;;;2.20;;
3993;SDS011;2011;48.238;13.948;2023-09-19T08:05:15;6.03;;;1.83;;
3993;SDS011;2011;48.238;13.948;2023-09-19T08:07:42;5.10;;;2.40;;
3993;SDS011;2011;48.238;13.948;2023-09-19T08:10:14;5.23;;;1.97;;
3993;SDS011;2011;48.238;13.948;2023-09-19T08:12:43;4.80;;;2.00;;
3993;SDS011;2011;48.238;13.948;2023-09-19T08:15:12;4.80;;;1.90;;
3993;SDS011;2011;48.238;13.948;2023-09-19T08:17:40;4.93;;;2.30;;
3993;SDS011;2011;48.238;13.948;2023-09-19T08:20:07;7.13;;;1.90;;
3993;SDS011;2011;48.238;13.948;2023-09-19T08:22:42;9.60;;;2.80;;
3993;SDS011;2011;48.238;13.948;2023-09-19T08:25:13;4.83;;;2.03;;
3993;SDS011;2011;48.238;13.948;2023-09-19T08:27:42;5.10;;;1.93;;
3993;SDS011;2011;48.238;13.948;2023-09-19T08:30:13;8.30;;;1.97;;
3993;SDS011;2011;48.238;13.948;2023-09-19T08:32:40;7.60;;;2.17;;
3993;SDS011;2011;48.238;13.948;2023-09-19T08:35:08;5.83;;;2.00;;
3993;SDS011;2011;48.238;13.948;2023-09-19T08:37:35;3.80;;;1.83;;
3993;SDS011;2011;48.238;13.948;2023-09-19T08:40:04;4.60;;;1.97;;
3993;SDS011;2011;48.238;13.948;2023-09-19T08:42:46;7.00;;;2.23;;
3993;SDS011;2011;48.238;13.948;2023-09-19T08:45:14;5.70;;;2.33;;
3993;SDS011;2011;48.238;13.948;2023-09-19T08:47:44;4.50;;;1.93;;
3993;SDS011;2011;48.238;13.948;2023-09-19T08:50:15;7.10;;;1.90;;
3993;SDS011;2011;48.238;13.948;2023-09-19T08:52:46;8.50;;;2.20;;
3993;SDS011;2011;48.238;13.948;2023-09-19T08:55:14;5.87;;;2.03;;
3993;SDS011;2011;48.238;13.948;2023-09-19T08:57:46;9.60;;;2.00;;
3993;SDS011;2011;48.238;13.948;2023-09-19T09:00:15;5.00;;;1.93;;
3993;SDS011;2011;48.238;13.948;2023-09-19T09:02:45;4.33;;;1.83;;
3993;SDS011;2011;48.238;13.948;2023-09-19T09:05:14;5.90;;;2.00;;
3993;SDS011;2011;48.238;13.948;2023-09-19T09:07:47;4.43;;;1.90;;
3993;SDS011;2011;48.238;13.948;2023-09-19T09:10:18;6.97;;;1.80;;
3993;SDS011;2011;48.238;13.948;2023-09-19T09:12:47;10.13;;;2.43;;
3993;SDS011;2011;48.238;13.948;2023-09-19T09:15:17;7.67;;;1.80;;
3993;SDS011;2011;48.238;13.948;2023-09-19T09:17:48;4.60;;;2.10;;
3993;SDS011;2011;48.238;13.948;2023-09-19T09:20:16;4.80;;;1.80;;
3993;SDS011;2011;48.238;13.948;2023-09-19T09:22:50;7.23;;;2.00;;
3993;SDS011;2011;48.238;13.948;2023-09-19T09:25:20;6.20;;;1.97;;
3993;SDS011;2011;48.238;13.948;2023-09-19T09:27:58;5.50;;;2.00;;
3993;SDS011;2011;48.238;13.948;2023-09-19T09:30:33;6.97;;;2.17;;
3993;SDS011;2011;48.238;13.948;2023-09-19T09:33:07;5.10;;;2.00;;
3993;SDS011;2011;48.238;13.948;2023-09-19T09:35:36;4.70;;;2.13;;
3993;SDS011;2011;48.238;13.948;2023-09-19T09:38:04;7.30;;;2.40;;
3993;SDS011;2011;48.238;13.948;2023-09-19T09:40:46;4.87;;;2.20;;
3993;SDS011;2011;48.238;13.948;2023-09-19T09:43:33;6.43;;;2.23;;
3993;SDS011;2011;48.238;13.948;2023-09-19T09:46:12;5.93;;;1.87;;
3993;SDS011;2011;48.238;13.948;2023-09-19T09:48:58;9.47;;;2.00;;
3993;SDS011;2011;48.238;13.948;2023-09-19T09:51:50;5.33;;;1.63;;
3993;SDS011;2011;48.238;13.948;2023-09-19T09:54:25;5.37;;;2.00;;
3993;SDS011;2011;48.238;13.948;2023-09-19T09:57:00;5.23;;;1.63;;
3993;SDS011;2011;48.238;13.948;2023-09-19T10:02:41;4.50;;;1.83;;
3993;SDS011;2011;48.238;13.948;2023-09-19T10:05:12;6.20;;;1.60;;
3993;SDS011;2011;48.238;13.948;2023-09-19T10:07:45;4.27;;;1.53;;
3993;SDS011;2011;48.238;13.948;2023-09-19T10:10:14;8.40;;;2.00;;
3993;SDS011;2011;48.238;13.948;2023-09-19T10:13:04;8.63;;;1.90;;
3993;SDS011;2011;48.238;13.948;2023-09-19T10:15:32;7.53;;;1.53;;
3993;SDS011;2011;48.238;13.948;2023-09-19T10:18:01;6.70;;;1.70;;
3993;SDS011;2011;48.238;13.948;2023-09-19T10:20:33;9.20;;;1.60;;
3993;SDS011;2011;48.238;13.948;2023-09-19T10:23:04;4.83;;;1.87;;
3993;SDS011;2011;48.238;13.948;2023-09-19T10:25:37;5.67;;;1.50;;
3993;SDS011;2011;48.238;13.948;2023-09-19T10:28:07;4.80;;;2.00;;
3993;SDS011;2011;48.238;13.948;2023-09-19T10:30:37;4.57;;;1.60;;
3993;SDS011;2011;48.238;13.948;2023-09-19T10:33:09;9.60;;;2.47;;
3993;SDS011;2011;48.238;13.948;2023-09-19T10:35:38;5.50;;;1.60;;
3993;SDS011;2011;48.238;13.948;2023-09-19T10:38:06;9.53;;;2.00;;
3993;SDS011;2011;48.238;13.948;2023-09-19T10:40:35;6.20;;;1.67;;
3993;SDS011;2011;48.238;13.948;2023-09-19T10:43:11;5.37;;;1.80;;
3993;SDS011;2011;48.238;13.948;2023-09-19T10:45:39;4.30;;;1.50;;
3993;SDS011;2011;48.238;13.948;2023-09-19T10:48:10;6.30;;;1.83;;
3993;SDS011;2011;48.238;13.948;2023-09-19T10:50:41;7.10;;;1.90;;
3993;SDS011;2011;48.238;13.948;2023-09-19T10:53:11;12.50;;;2.13;;
3993;SDS011;2011;48.238;13.948;2023-09-19T10:55:40;5.13;;;1.80;;
3993;SDS011;2011;48.238;13.948;2023-09-19T10:58:15;5.80;;;1.63;;
3993;SDS011;2011;48.238;13.948;2023-09-19T11:00:54;12.20;;;1.80;;
3993;SDS011;2011;48.238;13.948;2023-09-19T11:03:22;5.60;;;2.00;;
3993;SDS011;2011;48.238;13.948;2023-09-19T11:06:08;4.50;;;1.87;;
3993;SDS011;2011;48.238;13.948;2023-09-19T11:11:55;4.57;;;1.53;;
3993;SDS011;2011;48.238;13.948;2023-09-19T11:14:42;4.00;;;1.43;;
3993;SDS011;2011;48.238;13.948;2023-09-19T11:25:48;4.63;;;1.87;;
3993;SDS011;2011;48.238;13.948;2023-09-19T11:28:33;3.93;;;1.50;;
3993;SDS011;2011;48.238;13.948;2023-09-19T11:34:44;9.37;;;1.83;;
3993;SDS011;2011;48.238;13.948;2023-09-19T11:40:37;8.30;;;1.67;;
3993;SDS011;2011;48.238;13.948;2023-09-19T11:46:08;5.40;;;1.60;;
3993;SDS011;2011;48.238;13.948;2023-09-19T11:48:36;4.57;;;1.50;;
3993;SDS011;2011;48.238;13.948;2023-09-19T11:51:11;7.00;;;1.70;;
3993;SDS011;2011;48.238;13.948;2023-09-19T11:53:47;4.90;;;1.67;;
3993;SDS011;2011;48.238;13.948;2023-09-19T11:56:15;6.23;;;1.70;;
3993;SDS011;2011;48.238;13.948;2023-09-19T11:58:43;5.60;;;1.80;;
3993;SDS011;2011;48.238;13.948;2023-09-19T12:01:14;5.00;;;1.50;;
3993;SDS011;2011;48.238;13.948;2023-09-19T12:03:46;4.37;;;1.53;;
3993;SDS011;2011;48.238;13.948;2023-09-19T12:06:16;4.87;;;1.70;;
3993;SDS011;2011;48.238;13.948;2023-09-19T12:08:43;4.20;;;1.60;;
3993;SDS011;2011;48.238;13.948;2023-09-19T12:11:12;3.13;;;1.20;;
3993;SDS011;2011;48.238;13.948;2023-09-19T12:13:41;5.80;;;1.90;;
3993;SDS011;2011;48.238;13.948;2023-09-19T12:16:14;4.97;;;1.60;;
3993;SDS011;2011;48.238;13.948;2023-09-19T12:18:41;7.43;;;1.90;;
3993;SDS011;2011;48.238;13.948;2023-09-19T12:21:24;4.50;;;1.83;;
3993;SDS011;2011;48.238;13.948;2023-09-19T12:23:57;7.20;;;1.83;;
3993;SDS011;2011;48.238;13.948;2023-09-19T12:26:41;5.73;;;1.70;;
3993;SDS011;2011;48.238;13.948;2023-09-19T12:29:11;4.30;;;1.80;;
3993;SDS011;2011;48.238;13.948;2023-09-19T12:31:49;4.10;;;1.73;;
3993;SDS011;2011;48.238;13.948;2023-09-19T12:34:21;6.80;;;1.60;;
3993;SDS011;2011;48.238;13.948;2023-09-19T12:37:04;6.63;;;2.13;;
3993;SDS011;2011;48.238;13.948;2023-09-19T12:39:37;4.50;;;1.50;;
3993;SDS011;2011;48.238;13.948;2023-09-19T12:42:08;6.27;;;1.70;;
3993;SDS011;2011;48.238;13.948;2023-09-19T12:44:39;4.03;;;1.20;;
3993;SDS011;2011;48.238;13.948;2023-09-19T12:47:08;4.00;;;1.27;;
3993;SDS011;2011;48.238;13.948;2023-09-19T12:52:43;4.57;;;1.57;;
3993;SDS011;2011;48.238;13.948;2023-09-19T12:55:25;3.90;;;1.40;;
3993;SDS011;2011;48.238;13.948;2023-09-19T12:57:56;6.30;;;1.87;;
3993;SDS011;2011;48.238;13.948;2023-09-19T13:00:34;6.77;;;1.60;;
3993;SDS011;2011;48.238;13.948;2023-09-19T13:03:15;7.70;;;1.70;;
3993;SDS011;2011;48.238;13.948;2023-09-19T13:05:53;3.90;;;1.53;;
3993;SDS011;2011;48.238;13.948;2023-09-19T13:08:23;5.10;;;1.40;;
3993;SDS011;2011;48.238;13.948;2023-09-19T13:11:03;4.57;;;1.30;;
3993;SDS011;2011;48.238;13.948;2023-09-19T13:13:34;4.00;;;1.00;;
3993;SDS011;2011;48.238;13.948;2023-09-19T13:16:03;3.73;;;1.10;;
3993;SDS011;2011;48.238;13.948;2023-09-19T13:18:41;9.47;;;1.40;;
3993;SDS011;2011;48.238;13.948;2023-09-19T13:21:12;4.37;;;1.03;;
3993;SDS011;2011;48.238;13.948;2023-09-19T13:23:50;13.53;;;1.60;;
3993;SDS011;2011;48.238;13.948;2023-09-19T13:26:17;3.50;;;1.47;;
3993;SDS011;2011;48.238;13.948;2023-09-19T13:28:45;3.77;;;1.30;;
3993;SDS011;2011;48.238;13.948;2023-09-19T13:31:13;7.97;;;1.77;;
3993;SDS011;2011;48.238;13.948;2023-09-19T13:33:43;3.77;;;1.30;;
3993;SDS011;2011;48.238;13.948;2023-09-19T13:36:10;8.10;;;1.60;;
3993;SDS011;2011;48.238;13.948;2023-09-19T13:38:38;4.00;;;1.30;;
3993;SDS011;2011;48.238;13.948;2023-09-19T13:41:06;3.30;;;1.20;;
3993;SDS011;2011;48.238;13.948;2023-09-19T13:43:35;4.10;;;1.20;;
3993;SDS011;2011;48.238;13.948;2023-09-19T13:46:02;4.60;;;1.20;;
3993;SDS011;2011;48.238;13.948;2023-09-19T13:48:29;5.53;;;1.40;;
3993;SDS011;2011;48.238;13.948;2023-09-19T13:50:56;4.87;;;1.23;;
3993;SDS011;2011;48.238;13.948;2023-09-19T13:53:23;3.10;;;1.10;;
3993;SDS011;2011;48.238;13.948;2023-09-19T13:55:51;3.73;;;1.37;;
3993;SDS011;2011;48.238;13.948;2023-09-19T13:58:19;3.83;;;1.23;;
3993;SDS011;2011;48.238;13.948;2023-09-19T14:00:46;3.73;;;1.20;;
3993;SDS011;2011;48.238;13.948;2023-09-19T14:03:13;3.30;;;1.20;;
3993;SDS011;2011;48.238;13.948;2023-09-19T14:05:40;3.30;;;1.17;;
3993;SDS011;2011;48.238;13.948;2023-09-19T14:08:08;7.43;;;1.43;;
3993;SDS011;2011;48.238;13.948;2023-09-19T14:10:35;4.83;;;1.40;;
3993;SDS011;2011;48.238;13.948;2023-09-19T14:13:02;3.90;;;1.10;;
3993;SDS011;2011;48.238;13.948;2023-09-19T14:15:31;5.80;;;1.40;;
3993;SDS011;2011;48.238;13.948;2023-09-19T14:18:00;6.40;;;1.50;;
3993;SDS011;2011;48.238;13.948;2023-09-19T14:20:27;3.90;;;1.40;;
3993;SDS011;2011;48.238;13.948;2023-09-19T14:22:54;3.63;;;1.20;;
3993;SDS011;2011;48.238;13.948;2023-09-19T14:25:21;4.00;;;1.40;;
3993;SDS011;2011;48.238;13.948;2023-09-19T14:27:48;3.30;;;1.33;;
3993;SDS011;2011;48.238;13.948;2023-09-19T14:30:15;4.50;;;1.40;;
3993;SDS011;2011;48.238;13.948;2023-09-19T14:32:43;4.23;;;1.00;;
3993;SDS011;2011;48.238;13.948;2023-09-19T14:35:10;5.70;;;1.83;;
3993;SDS011;2011;48.238;13.948;2023-09-19T14:37:38;4.20;;;1.40;;
3993;SDS011;2011;48.238;13.948;2023-09-19T14:40:06;3.23;;;1.27;;
3993;SDS011;2011;48.238;13.948;2023-09-19T14:42:35;3.47;;;1.23;;
3993;SDS011;2011;48.238;13.948;2023-09-19T14:45:03;4.73;;;1.60;;
3993;SDS011;2011;48.238;13.948;2023-09-19T14:47:32;4.33;;;1.60;;
3993;SDS011;2011;48.238;13.948;2023-09-19T14:50:01;3.33;;;1.30;;
3993;SDS011;2011;48.238;13.948;2023-09-19T14:52:31;5.53;;;1.60;;
3993;SDS011;2011;48.238;13.948;2023-09-19T14:54:58;4.10;;;1.40;;
3993;SDS011;2011;48.238;13.948;2023-09-19T14:57:26;4.70;;;1.40;;
3993;SDS011;2011;48.238;13.948;2023-09-19T14:59:54;9.70;;;1.30;;
3993;SDS011;2011;48.238;13.948;2023-09-19T15:02:21;5.27;;;1.40;;
3993;SDS011;2011;48.238;13.948;2023-09-19T15:04:48;3.33;;;1.10;;
3993;SDS011;2011;48.238;13.948;2023-09-19T15:07:17;7.87;;;1.93;;
3993;SDS011;2011;48.238;13.948;2023-09-19T15:09:44;3.87;;;1.60;;
3993;SDS011;2011;48.238;13.948;2023-09-19T15:12:12;4.90;;;1.57;;
3993;SDS011;2011;48.238;13.948;2023-09-19T15:14:40;13.13;;;1.70;;
3993;SDS011;2011;48.238;13.948;2023-09-19T15:17:07;3.87;;;1.30;;
3993;SDS011;2011;48.238;13.948;2023-09-19T15:19:34;4.60;;;1.30;;
3993;SDS011;2011;48.238;13.948;2023-09-19T15:22:03;4.03;;;1.30;;
3993;SDS011;2011;48.238;13.948;2023-09-19T15:24:32;4.50;;;1.37;;
3993;SDS011;2011;48.238;13.948;2023-09-19T15:26:59;3.60;;;1.43;;
3993;SDS011;2011;48.238;13.948;2023-09-19T15:29:26;4.47;;;1.50;;
3993;SDS011;2011;48.238;13.948;2023-09-19T15:31:54;6.80;;;1.60;;
3993;SDS011;2011;48.238;13.948;2023-09-19T15:34:27;4.93;;;1.77;;
3993;SDS011;2011;48.238;13.948;2023-09-19T15:36:54;5.23;;;1.73;;
3993;SDS011;2011;48.238;13.948;2023-09-19T15:39:20;5.53;;;2.30;;
3993;SDS011;2011;48.238;13.948;2023-09-19T15:41:49;6.70;;;2.53;;
3993;SDS011;2011;48.238;13.948;2023-09-19T15:44:16;7.20;;;3.30;;
3993;SDS011;2011;48.238;13.948;2023-09-19T15:46:45;6.70;;;2.90;;
3993;SDS011;2011;48.238;13.948;2023-09-19T15:49:12;8.53;;;2.00;;